Ewen, Michigan
Current Conditions -  °F | °C
As of 9:35 AM on Thursday 30 Oct 2014 (Local Time) from KLNL Reporting Station
Overcast Overcast  
Wind Chill: 36°   Ceiling: 1500
Heat Index: 36°   Visibility: 10mi
Dew Point: 34°   Wind: 0mph
Humidity: 91%   Direction: NA
Pressure: 30.03"   Gusts: NA
Location:  46.53°N, 89.28°W
Report Text: KLNL 301335Z AUTO 00000KT 10SM OVC015 02/01 A3003 RMK AO2 T00230009
Loading
Personal Weather Stations






























Interactive Weather Map
Tropical Storm Tracking
New forecast layout! Learn more

10-Day Weather Forecast

Advertisements
Track Severe Weather on mobile